Time;durP1;ratioP1;P1;durP2;ratioP2;P2;SDS_P1;SDS_P2;PMS_P1;PMS_P2;Temp;Humidity;BMP_temperature;BMP_pressure;BME280_temperature;BME280_humidity;BME280_pressure;Samples;Min_cycle;Max_cycle;Signal;HPM_P1;HPM_P2
2023/05/27 00:01:00;;;;;;;19.90;13.30;;;22.20;91.70;;;;;;5054613;28;20213;-65
2023/05/27 00:03:27;;;;;;;13.97;12.57;;;22.20;91.80;;;;;;5057965;28;20592;-65
2023/05/27 00:05:54;;;;;;;14.60;12.83;;;22.20;91.80;;;;;;5055921;28;20204;-65
2023/05/27 00:08:22;;;;;;;16.73;13.17;;;22.20;91.80;;;;;;5057056;28;20222;-65
2023/05/27 00:10:52;;;;;;;17.03;13.40;;;22.20;91.80;;;;;;5057687;28;20649;-65
2023/05/27 00:13:19;;;;;;;21.97;12.77;;;22.20;91.80;;;;;;5056494;28;20652;-65
2023/05/27 00:15:46;;;;;;;14.33;11.27;;;22.20;91.80;;;;;;5055615;28;20265;-65
2023/05/27 00:18:13;;;;;;;20.27;12.40;;;22.20;91.80;;;;;;5056611;28;20199;-65
2023/05/27 00:20:41;;;;;;;16.87;12.80;;;22.20;91.80;;;;;;5053419;28;20589;-66
2023/05/27 00:23:08;;;;;;;15.00;13.37;;;22.20;91.80;;;;;;5064373;28;20558;-65
2023/05/27 00:25:36;;;;;;;19.10;13.00;;;22.10;91.70;;;;;;5058257;28;20201;-65
2023/05/27 00:28:03;;;;;;;16.70;13.27;;;22.10;91.70;;;;;;5059385;28;20275;-66
2023/05/27 00:30:30;;;;;;;18.90;12.67;;;22.10;91.80;;;;;;5054021;28;20246;-66
2023/05/27 00:32:57;;;;;;;17.57;14.13;;;22.10;91.80;;;;;;5063100;28;20278;-66
2023/05/27 00:35:25;;;;;;;14.70;13.20;;;22.00;91.70;;;;;;5055213;28;20694;-66
2023/05/27 00:37:52;;;;;;;15.87;13.27;;;22.10;91.70;;;;;;5057235;28;20206;-65
2023/05/27 00:40:22;;;;;;;13.23;11.93;;;22.00;91.70;;;;;;5087352;28;20217;-65
2023/05/27 00:42:50;;;;;;;14.67;12.67;;;22.00;91.80;;;;;;5053283;28;20230;-65
2023/05/27 00:45:18;;;;;;;14.37;12.77;;;22.00;91.80;;;;;;5062792;28;20199;-65
2023/05/27 00:47:45;;;;;;;15.93;12.33;;;22.00;91.80;;;;;;5057610;28;20555;-65
2023/05/27 00:50:14;;;;;;;17.60;10.87;;;22.10;91.90;;;;;;5053275;28;20507;-66
2023/05/27 00:52:42;;;;;;;17.63;11.57;;;22.00;91.70;;;;;;5090489;28;20268;-65
2023/05/27 00:55:11;;;;;;;21.70;12.17;;;22.10;91.50;;;;;;5063116;28;20513;-66
2023/05/27 00:57:38;;;;;;;20.10;13.50;;;22.00;91.20;;;;;;5058433;28;20648;-67
2023/05/27 01:00:15;;;;;;;16.83;15.10;;;21.90;91.40;;;;;;5058663;28;20210;-65
2023/05/27 01:02:42;;;;;;;19.20;17.03;;;21.80;91.80;;;;;;5089475;28;20247;-65
2023/05/27 01:05:12;;;;;;;21.50;16.60;;;21.70;92.20;;;;;;5066118;28;20194;-71
2023/05/27 01:08:01;;;;;;;21.60;17.53;;;21.70;92.60;;;;;;5062154;28;20202;-65
2023/05/27 01:10:49;;;;;;;21.43;16.17;;;21.70;92.90;;;;;;5054927;28;20652;-66
2023/05/27 01:13:40;;;;;;;22.10;16.07;;;21.60;93.20;;;;;;5073058;28;20211;-65
2023/05/27 01:16:18;;;;;;;19.07;12.03;;;21.60;93.40;;;;;;5048100;28;20242;-64
2023/05/27 01:47:49;;;;;;;15.03;11.50;;;20.30;93.50;;;;;;5131987;27;20885;-65
2023/05/27 01:50:16;;;;;;;13.00;10.30;;;20.40;96.50;;;;;;5119731;27;20212;-70
2023/05/27 01:52:43;;;;;;;15.23;11.07;;;20.40;96.40;;;;;;5135214;27;20231;-66
2023/05/27 01:55:11;;;;;;;11.13;9.27;;;20.30;96.40;;;;;;5128194;27;20208;-66
2023/05/27 01:57:38;;;;;;;8.93;8.13;;;20.30;96.50;;;;;;5125376;27;20223;-65
2023/05/27 02:00:10;;;;;;;9.93;8.57;;;20.30;96.40;;;;;;5149119;27;20290;-65
2023/05/27 02:02:43;;;;;;;11.23;8.93;;;20.30;96.40;;;;;;5131036;27;20629;-67
2023/05/27 02:05:13;;;;;;;12.20;8.67;;;20.30;96.40;;;;;;5133955;27;20207;-66
2023/05/27 02:07:41;;;;;;;12.03;8.20;;;20.20;96.30;;;;;;5130161;27;20199;-67
2023/05/27 02:10:09;;;;;;;9.97;7.30;;;20.20;96.40;;;;;;5122713;27;20195;-65
2023/05/27 02:12:36;;;;;;;13.40;8.80;;;20.20;96.50;;;;;;5123506;27;20205;-66
2023/05/27 02:15:05;;;;;;;10.13;8.30;;;20.20;96.40;;;;;;5115155;28;20660;-65
2023/05/27 02:17:32;;;;;;;11.10;8.50;;;20.20;96.40;;;;;;5116241;27;20656;-66
2023/05/27 02:19:59;;;;;;;8.70;7.80;;;20.20;96.40;;;;;;5120520;27;20282;-65
2023/05/27 02:22:27;;;;;;;8.97;7.37;;;20.20;96.40;;;;;;5126301;27;20250;-66
2023/05/27 02:24:54;;;;;;;10.53;8.57;;;20.20;96.30;;;;;;5116002;27;20207;-65
2023/05/27 02:27:21;;;;;;;10.27;8.70;;;20.20;96.30;;;;;;5135192;27;20208;-65
2023/05/27 02:29:48;;;;;;;11.20;8.17;;;20.20;96.30;;;;;;5115261;27;20279;-67
2023/05/27 02:32:16;;;;;;;13.20;8.97;;;20.20;96.30;;;;;;5118217;27;20210;-65
2023/05/27 02:34:43;;;;;;;10.40;8.90;;;20.20;96.40;;;;;;5117572;28;20301;-65
2023/05/27 02:37:11;;;;;;;12.73;9.37;;;20.20;96.50;;;;;;5109357;28;20223;-65
2023/05/27 02:39:40;;;;;;;10.90;9.53;;;20.20;96.50;;;;;;5113529;28;20209;-66
2023/05/27 02:42:08;;;;;;;11.53;9.90;;;20.20;96.50;;;;;;5128359;27;20191;-65
2023/05/27 02:44:35;;;;;;;13.07;9.80;;;20.20;96.50;;;;;;5129672;27;20717;-63
2023/05/27 02:47:02;;;;;;;14.43;10.33;;;20.30;96.60;;;;;;5096140;28;20290;-63
2023/05/27 02:49:29;;;;;;;18.43;10.00;;;20.30;96.70;;;;;;5103193;28;20200;-64
2023/05/27 02:51:56;;;;;;;14.67;10.07;;;20.30;96.80;;;;;;5094661;28;20599;-62
2023/05/27 02:54:23;;;;;;;12.20;9.83;;;20.30;96.80;;;;;;5098616;28;20663;-63
2023/05/27 02:56:51;;;;;;;14.10;9.80;;;20.30;96.70;;;;;;5102091;28;20217;-63
2023/05/27 02:59:18;;;;;;;13.30;9.83;;;20.30;96.70;;;;;;5097496;28;20263;-62
2023/05/27 03:01:45;;;;;;;16.70;9.97;;;20.30;96.70;;;;;;5099478;28;20211;-63
2023/05/27 03:04:12;;;;;;;16.33;10.87;;;20.30;96.80;;;;;;5103696;28;20246;-62
2023/05/27 03:06:40;;;;;;;12.47;10.37;;;20.30;96.80;;;;;;5097838;28;20234;-62
2023/05/27 03:09:09;;;;;;;11.37;9.57;;;20.30;96.80;;;;;;5093055;28;20220;-62
2023/05/27 03:11:36;;;;;;;13.53;9.93;;;20.30;96.90;;;;;;5104318;28;20224;-62
2023/05/27 03:14:03;;;;;;;14.87;10.37;;;20.30;96.90;;;;;;5096947;28;20249;-62
2023/05/27 03:16:31;;;;;;;10.43;9.30;;;20.30;96.90;;;;;;5098965;28;20212;-63
2023/05/27 03:18:58;;;;;;;16.20;10.73;;;20.30;97.00;;;;;;5099957;28;20303;-66
2023/05/27 03:21:26;;;;;;;13.10;9.77;;;20.30;97.10;;;;;;5099374;28;20221;-63
2023/05/27 03:23:53;;;;;;;15.77;9.00;;;20.30;97.10;;;;;;5099995;28;20205;-63
2023/05/27 03:26:21;;;;;;;14.90;9.07;;;20.30;96.90;;;;;;5097904;28;20280;-62
2023/05/27 03:28:49;;;;;;;18.67;8.73;;;20.30;96.80;;;;;;5079520;28;20224;-62
2023/05/27 03:31:17;;;;;;;16.60;10.07;;;20.30;96.70;;;;;;5096837;28;20204;-63
2023/05/27 03:34:04;;;;;;;14.33;9.90;;;20.30;96.70;;;;;;5095646;28;20209;-63
2023/05/27 03:36:31;;;;;;;17.33;9.43;;;20.20;96.70;;;;;;5093156;28;20224;-63
2023/05/27 03:38:58;;;;;;;18.57;10.37;;;20.20;96.80;;;;;;5101455;28;20210;-63
2023/05/27 03:41:27;;;;;;;12.20;10.00;;;20.10;96.90;;;;;;5097105;28;20205;-65
2023/05/27 03:43:54;;;;;;;13.03;10.23;;;20.00;97.10;;;;;;5095819;28;20204;-63
2023/05/27 03:46:22;;;;;;;16.57;10.60;;;20.00;97.30;;;;;;5087679;28;20244;-65
2023/05/27 03:48:49;;;;;;;17.40;11.00;;;20.00;97.50;;;;;;5067070;28;20637;-63
2023/05/27 03:51:16;;;;;;;16.40;10.83;;;20.00;97.70;;;;;;5074315;28;20513;-63
2023/05/27 03:53:44;;;;;;;15.60;10.53;;;20.00;97.80;;;;;;5070904;28;20815;-63
2023/05/27 03:56:11;;;;;;;17.13;10.63;;;19.90;97.80;;;;;;5061743;28;20382;-63
2023/05/27 03:58:39;;;;;;;19.23;11.70;;;19.90;97.90;;;;;;5068889;28;20265;-63
2023/05/27 04:01:06;;;;;;;15.90;9.50;;;20.00;98.00;;;;;;5071183;28;20205;-63
2023/05/27 04:03:33;;;;;;;15.83;9.33;;;19.90;98.00;;;;;;5072094;28;20198;-63
2023/05/27 04:06:01;;;;;;;14.93;9.53;;;19.90;98.00;;;;;;5105097;28;20222;-63
2023/05/27 04:08:28;;;;;;;17.70;9.17;;;19.90;98.00;;;;;;5104759;28;20198;-64
2023/05/27 04:10:55;;;;;;;11.17;7.77;;;19.90;97.90;;;;;;5070449;28;20198;-64
2023/05/27 04:13:24;;;;;;;10.80;7.57;;;19.80;97.80;;;;;;5074315;28;20196;-63
2023/05/27 04:15:52;;;;;;;9.97;6.60;;;19.80;97.80;;;;;;5100854;28;20329;-63
2023/05/27 04:18:20;;;;;;;9.87;7.07;;;19.80;97.70;;;;;;5071597;28;20193;-68
2023/05/27 04:20:48;;;;;;;8.90;6.30;;;19.70;97.40;;;;;;5072395;28;20293;-63
2023/05/27 04:23:16;;;;;;;11.00;6.33;;;19.70;97.40;;;;;;5060064;28;20339;-63
2023/05/27 04:25:43;;;;;;;9.37;6.03;;;19.70;97.40;;;;;;5070577;28;20221;-64
2023/05/27 04:28:12;;;;;;;7.37;6.27;;;19.70;97.40;;;;;;5064008;28;20276;-63
2023/05/27 04:30:42;;;;;;;7.70;5.33;;;19.70;97.20;;;;;;5068886;28;20234;-64
2023/05/27 04:33:15;;;;;;;9.00;6.00;;;19.70;97.20;;;;;;5049907;28;20201;-64
2023/05/27 04:35:43;;;;;;;7.57;6.17;;;19.70;97.00;;;;;;5103401;28;20546;-63
2023/05/27 04:38:16;;;;;;;10.13;6.17;;;19.60;97.00;;;;;;5053461;28;20285;-63
2023/05/27 04:40:55;;;;;;;6.87;5.67;;;19.60;97.00;;;;;;5064714;28;20206;-63
2023/05/27 04:43:42;;;;;;;11.47;5.63;;;19.60;97.00;;;;;;5037418;28;20206;-64
2023/05/27 04:46:13;;;;;;;8.03;5.47;;;19.60;96.90;;;;;;5072412;28;20244;-64
2023/05/27 04:48:44;;;;;;;12.17;5.57;;;19.60;96.80;;;;;;5073905;28;20201;-64
2023/05/27 04:51:15;;;;;;;8.30;5.20;;;19.60;96.80;;;;;;5079314;28;20201;-63
2023/05/27 04:53:42;;;;;;;5.90;5.30;;;19.60;96.80;;;;;;5075972;28;20239;-65
2023/05/27 04:56:10;;;;;;;9.83;5.00;;;19.60;96.80;;;;;;5074591;28;20229;-63
2023/05/27 04:58:39;;;;;;;5.83;5.10;;;19.60;96.80;;;;;;5080743;28;20542;-64
2023/05/27 05:01:16;;;;;;;6.13;4.87;;;19.60;96.90;;;;;;5076646;28;20205;-63
2023/05/27 05:04:02;;;;;;;12.60;6.83;;;19.70;96.90;;;;;;5082921;28;20197;-63
2023/05/27 05:06:30;;;;;;;17.17;5.67;;;19.70;97.00;;;;;;5069944;28;20550;-64
2023/05/27 05:08:57;;;;;;;8.20;5.37;;;19.70;96.80;;;;;;5074770;28;20715;-64
2023/05/27 05:11:26;;;;;;;6.93;5.43;;;19.70;96.80;;;;;;5072610;28;20202;-66
2023/05/27 05:13:53;;;;;;;10.27;5.00;;;19.70;96.70;;;;;;5076954;28;20201;-63
2023/05/27 05:16:20;;;;;;;8.67;4.70;;;19.80;96.70;;;;;;5072327;28;20218;-63
2023/05/27 05:18:47;;;;;;;10.87;4.60;;;19.80;96.80;;;;;;5077590;28;20231;-64
2023/05/27 05:21:14;;;;;;;6.97;4.87;;;19.80;97.00;;;;;;5078326;28;20299;-63
2023/05/27 05:23:42;;;;;;;8.77;4.80;;;19.80;97.10;;;;;;5080808;28;20534;-64
2023/05/27 05:26:09;;;;;;;7.53;4.33;;;19.80;97.20;;;;;;5072144;28;20215;-63
2023/05/27 05:28:40;;;;;;;5.87;4.37;;;19.80;97.10;;;;;;5078993;28;20336;-64
2023/05/27 05:31:08;;;;;;;5.17;4.13;;;19.80;97.10;;;;;;5079844;28;20712;-63
2023/05/27 05:33:35;;;;;;;8.83;5.03;;;19.80;97.00;;;;;;5082364;28;20221;-67
2023/05/27 05:36:04;;;;;;;9.13;4.47;;;19.80;97.00;;;;;;5077995;28;20209;-66
2023/05/27 05:38:43;;;;;;;7.90;4.43;;;19.80;96.90;;;;;;5072864;28;20616;-64
2023/05/27 05:41:11;;;;;;;7.07;5.40;;;19.80;97.00;;;;;;5086236;28;20236;-64
2023/05/27 05:43:38;;;;;;;16.67;4.93;;;19.90;97.00;;;;;;5071172;28;20227;-65
2023/05/27 05:46:07;;;;;;;6.73;5.13;;;19.90;97.10;;;;;;5084498;28;20640;-64
2023/05/27 05:48:34;;;;;;;8.10;4.87;;;20.00;97.10;;;;;;5103402;28;20224;-65
2023/05/27 05:51:01;;;;;;;8.93;4.90;;;20.00;97.10;;;;;;5133212;27;20562;-63
2023/05/27 05:53:31;;;;;;;9.57;5.40;;;20.00;97.10;;;;;;5097270;28;20204;-64
2023/05/27 05:55:59;;;;;;;10.03;5.30;;;20.10;97.30;;;;;;5100137;28;20287;-63
2023/05/27 05:58:26;;;;;;;7.67;5.53;;;20.20;97.30;;;;;;5120193;28;20214;-64
2023/05/27 06:00:53;;;;;;;8.20;5.17;;;20.20;97.30;;;;;;5117565;28;20253;-66
2023/05/27 06:03:36;;;;;;;7.47;4.60;;;20.20;97.40;;;;;;5097123;28;20191;-63
2023/05/27 06:06:06;;;;;;;7.73;5.40;;;20.30;97.40;;;;;;5098741;28;20204;-64
2023/05/27 06:08:51;;;;;;;6.23;5.60;;;20.30;97.50;;;;;;5097164;28;20201;-64
2023/05/27 06:11:18;;;;;;;6.70;4.57;;;20.40;97.50;;;;;;5095268;28;20653;-64
2023/05/27 06:13:45;;;;;;;7.87;5.33;;;20.40;97.90;;;;;;5118087;28;20199;-64
2023/05/27 06:16:16;;;;;;;8.40;5.37;;;20.50;97.60;;;;;;5096943;28;20204;-64
2023/05/27 06:18:45;;;;;;;5.10;4.20;;;20.50;97.50;;;;;;5097071;28;20201;-64
2023/05/27 06:21:13;;;;;;;7.17;4.90;;;20.50;97.50;;;;;;5103072;28;20521;-64
2023/05/27 06:24:07;;;;;;;6.70;4.60;;;20.60;97.30;;;;;;5114358;27;20603;-63
2023/05/27 06:26:37;;;;;;;6.13;5.20;;;20.60;97.20;;;;;;5105980;27;20262;-64
2023/05/27 06:29:04;;;;;;;8.17;5.73;;;20.60;97.20;;;;;;5123091;27;20196;-64
2023/05/27 06:31:33;;;;;;;8.97;4.60;;;20.70;97.20;;;;;;5134789;27;20215;-64
2023/05/27 06:34:00;;;;;;;8.87;5.23;;;20.70;97.10;;;;;;5122750;27;20279;-64
2023/05/27 06:36:27;;;;;;;4.87;4.37;;;20.70;97.00;;;;;;5104556;27;20216;-64
2023/05/27 06:38:55;;;;;;;6.43;4.90;;;20.70;97.00;;;;;;5106029;27;20215;-63
2023/05/27 06:41:23;;;;;;;6.17;4.97;;;20.80;96.80;;;;;;5109808;28;20283;-65
2023/05/27 06:44:10;;;;;;;7.10;4.77;;;20.80;96.80;;;;;;5120068;27;20204;-64
2023/05/27 06:46:52;;;;;;;7.87;4.93;;;20.90;96.70;;;;;;5100328;27;20316;-64
2023/05/27 06:49:29;;;;;;;6.63;4.77;;;20.90;96.60;;;;;;5125530;27;20199;-65
2023/05/27 06:51:59;;;;;;;7.37;4.50;;;21.00;96.30;;;;;;5102390;27;20583;-65
2023/05/27 06:54:28;;;;;;;6.73;4.40;;;21.00;95.70;;;;;;5094319;28;20217;-64
2023/05/27 06:57:11;;;;;;;5.50;4.30;;;21.00;95.40;;;;;;5101120;27;20256;-64
2023/05/27 06:59:50;;;;;;;5.70;4.93;;;21.00;95.60;;;;;;5097477;28;20208;-64
2023/05/27 07:02:17;;;;;;;5.23;4.57;;;21.10;95.80;;;;;;5118846;27;20204;-64
2023/05/27 07:04:44;;;;;;;7.67;5.13;;;21.10;96.00;;;;;;5100059;28;20253;-64
2023/05/27 07:07:11;;;;;;;5.77;4.70;;;21.10;96.00;;;;;;5118644;27;20196;-64
2023/05/27 07:09:38;;;;;;;6.27;5.03;;;21.20;96.10;;;;;;5100337;27;20295;-64
2023/05/27 07:12:08;;;;;;;9.87;5.30;;;21.30;96.30;;;;;;5099126;27;20228;-63
2023/05/27 07:14:49;;;;;;;7.23;4.47;;;21.40;96.30;;;;;;5098148;27;20227;-64
2023/05/27 07:17:18;;;;;;;8.17;5.80;;;21.50;96.30;;;;;;5101338;28;20220;-64
2023/05/27 07:19:46;;;;;;;6.93;5.23;;;21.60;96.20;;;;;;5100119;28;20197;-64
2023/05/27 07:22:17;;;;;;;18.17;5.80;;;21.70;96.10;;;;;;5097800;28;20201;-64
2023/05/27 07:24:44;;;;;;;7.67;4.90;;;21.80;95.90;;;;;;5131483;27;20630;-64
2023/05/27 07:27:12;;;;;;;7.43;5.30;;;21.90;95.80;;;;;;5113579;27;20197;-64
2023/05/27 07:29:44;;;;;;;4.60;4.00;;;22.00;95.70;;;;;;5100040;27;20287;-64
2023/05/27 07:32:31;;;;;;;5.77;4.70;;;22.10;95.30;;;;;;5118663;27;20605;-64
2023/05/27 07:34:58;;;;;;;6.83;4.40;;;22.20;94.80;;;;;;5101411;28;20208;-64
2023/05/27 07:37:26;;;;;;;7.07;4.40;;;22.30;94.80;;;;;;5092901;28;20213;-64
2023/05/27 07:39:53;;;;;;;9.67;5.27;;;22.40;94.80;;;;;;5095726;28;20208;-64
2023/05/27 07:42:20;;;;;;;6.63;5.03;;;22.50;94.60;;;;;;5096421;28;20644;-64
2023/05/27 07:44:47;;;;;;;6.07;4.90;;;22.60;94.40;;;;;;5101084;28;20653;-64
2023/05/27 07:47:14;;;;;;;7.73;5.17;;;22.70;94.00;;;;;;5109620;27;20574;-64
2023/05/27 07:49:42;;;;;;;5.70;4.40;;;22.70;93.70;;;;;;5097363;28;20291;-63
2023/05/27 07:52:33;;;;;;;9.53;4.93;;;22.80;93.30;;;;;;5105522;27;20213;-64
2023/05/27 07:55:04;;;;;;;5.70;5.10;;;22.80;93.10;;;;;;5101197;28;20654;-64
2023/05/27 07:57:32;;;;;;;7.60;5.23;;;22.90;93.40;;;;;;5097148;28;20269;-64
2023/05/27 07:59:59;;;;;;;8.33;4.70;;;23.10;93.60;;;;;;5128378;27;20235;-65
2023/05/27 08:02:41;;;;;;;7.37;4.60;;;23.40;93.80;;;;;;5113585;27;20526;-64
2023/05/27 08:05:10;;;;;;;5.33;4.77;;;23.70;93.50;;;;;;5096098;28;20299;-64
2023/05/27 08:08:12;;;;;;;6.10;4.83;;;24.00;92.40;;;;;;5028923;28;20208;-63
2023/05/27 08:10:59;;;;;;;5.80;4.87;;;24.20;91.30;;;;;;5068415;27;20299;-63
2023/05/27 08:13:45;;;;;;;9.73;5.70;;;24.40;90.30;;;;;;5115039;27;20253;-64
2023/05/27 08:16:35;;;;;;;9.57;6.63;;;24.50;87.80;;;;;;5105340;28;20252;-64
2023/05/27 08:19:13;;;;;;;7.63;5.73;;;24.60;88.30;;;;;;5099426;28;20206;-65
2023/05/27 08:21:58;;;;;;;10.33;5.63;;;24.60;84.40;;;;;;5101132;27;20266;-65
2023/05/27 08:24:52;;;;;;;8.90;6.87;;;24.60;86.30;;;;;;5091394;27;20290;-64
2023/05/27 08:27:50;;;;;;;8.77;6.20;;;24.70;85.20;;;;;;5113482;28;20568;-65
2023/05/27 08:30:32;;;;;;;8.73;6.40;;;24.80;85.00;;;;;;5094448;28;20215;-65
2023/05/27 08:33:05;;;;;;;7.87;6.57;;;24.90;82.30;;;;;;5097044;28;20209;-63
2023/05/27 08:35:32;;;;;;;8.63;6.43;;;25.00;82.40;;;;;;5114595;27;20206;-64
2023/05/27 08:37:59;;;;;;;10.07;6.20;;;25.00;84.60;;;;;;5114905;27;20641;-65
2023/05/27 08:40:32;;;;;;;9.83;5.40;;;25.20;84.20;;;;;;5114221;27;20281;-64
2023/05/27 08:43:00;;;;;;;7.57;6.03;;;25.30;81.70;;;;;;5096830;28;20242;-63
2023/05/27 08:45:27;;;;;;;9.30;6.70;;;25.40;80.90;;;;;;5095887;28;20629;-63
2023/05/27 08:47:55;;;;;;;11.20;6.37;;;25.50;82.20;;;;;;5130247;27;20207;-64
2023/05/27 08:50:29;;;;;;;7.07;6.10;;;25.60;78.20;;;;;;5096381;28;20200;-63
2023/05/27 08:52:56;;;;;;;8.83;6.47;;;25.60;77.90;;;;;;5115185;27;20284;-64
2023/05/27 08:55:26;;;;;;;8.53;5.90;;;25.60;78.10;;;;;;5096607;28;20253;-65
2023/05/27 08:57:59;;;;;;;6.90;5.60;;;25.70;77.20;;;;;;5096077;28;20250;-64
2023/05/27 09:00:28;;;;;;;9.80;5.90;;;25.60;76.10;;;;;;5108507;28;20263;-65
2023/05/27 09:03:02;;;;;;;10.53;6.37;;;25.60;77.50;;;;;;5128848;27;20196;-64
2023/05/27 09:05:33;;;;;;;7.60;6.07;;;25.70;79.30;;;;;;5128011;27;20575;-64
2023/05/27 09:08:00;;;;;;;10.40;6.20;;;25.90;81.20;;;;;;5114468;28;20219;-65
2023/05/27 09:10:41;;;;;;;8.03;6.20;;;26.20;81.20;;;;;;5114931;28;20283;-64
2023/05/27 09:13:08;;;;;;;7.97;5.70;;;26.40;82.00;;;;;;5111175;27;20197;-64
2023/05/27 09:15:35;;;;;;;10.30;5.83;;;26.60;80.50;;;;;;5096818;28;20193;-63
2023/05/27 09:18:05;;;;;;;7.67;6.53;;;26.80;79.00;;;;;;5095742;28;20274;-64
2023/05/27 09:20:32;;;;;;;8.00;5.80;;;27.00;74.90;;;;;;5114467;28;20656;-68
2023/05/27 09:23:02;;;;;;;7.43;5.57;;;27.00;75.30;;;;;;5111391;28;20193;-64
2023/05/27 09:25:29;;;;;;;8.97;6.53;;;27.20;75.60;;;;;;5114101;28;20228;-64
2023/05/27 09:27:56;;;;;;;7.23;6.23;;;27.30;74.20;;;;;;5110672;28;20260;-64
2023/05/27 09:30:25;;;;;;;8.07;6.30;;;27.30;73.70;;;;;;5096215;28;20208;-63
2023/05/27 09:33:01;;;;;;;13.50;5.97;;;27.30;71.90;;;;;;5113252;28;20192;-64
2023/05/27 09:35:28;;;;;;;8.13;6.57;;;27.30;72.10;;;;;;5093277;28;20593;-64
2023/05/27 09:38:05;;;;;;;7.93;6.57;;;27.40;71.60;;;;;;5094254;28;20204;-64
2023/05/27 09:40:35;;;;;;;13.37;6.40;;;27.40;71.10;;;;;;5112910;28;20651;-64
2023/05/27 09:43:02;;;;;;;8.97;6.17;;;27.50;71.50;;;;;;5117809;28;20219;-64
2023/05/27 09:45:29;;;;;;;8.93;5.67;;;27.60;72.40;;;;;;5092264;28;20672;-64
2023/05/27 09:48:00;;;;;;;11.77;6.50;;;27.70;70.50;;;;;;5113667;28;20204;-64
2023/05/27 09:50:28;;;;;;;6.60;5.87;;;27.70;70.10;;;;;;5112841;28;20247;-63
2023/05/27 09:52:56;;;;;;;7.60;6.17;;;27.80;69.10;;;;;;5112266;28;20189;-64
2023/05/27 09:55:39;;;;;;;11.83;7.23;;;27.70;66.60;;;;;;5114025;28;20206;-63
2023/05/27 09:58:06;;;;;;;7.63;6.37;;;27.70;68.60;;;;;;5116675;27;20199;-64
2023/05/27 10:00:34;;;;;;;6.77;6.03;;;27.70;66.80;;;;;;5117616;27;20196;-64
2023/05/27 10:03:03;;;;;;;10.83;6.90;;;27.70;68.10;;;;;;5117618;28;20203;-64
2023/05/27 10:05:31;;;;;;;6.30;5.53;;;27.70;66.10;;;;;;5118384;27;20739;-65
2023/05/27 10:07:58;;;;;;;8.87;6.37;;;27.70;68.20;;;;;;5117066;27;20201;-64
2023/05/27 10:10:46;;;;;;;10.03;5.67;;;27.80;69.10;;;;;;5117958;27;20545;-64
2023/05/27 10:13:16;;;;;;;8.03;6.40;;;27.90;68.30;;;;;;5118376;27;20596;-64
2023/05/27 10:15:50;;;;;;;11.03;6.33;;;27.90;66.10;;;;;;5116230;27;20199;-65
2023/05/27 10:18:23;;;;;;;7.67;6.23;;;27.90;66.50;;;;;;5116131;27;20295;-63
2023/05/27 10:20:51;;;;;;;7.33;5.73;;;28.00;68.00;;;;;;5115050;27;20197;-64
2023/05/27 10:23:21;;;;;;;8.83;6.47;;;28.10;68.60;;;;;;5118210;27;20235;-63
2023/05/27 10:25:54;;;;;;;9.47;6.90;;;28.30;69.20;;;;;;5117636;28;20189;-64
2023/05/27 10:28:26;;;;;;;10.67;6.10;;;28.40;68.40;;;;;;5118591;27;20219;-64
2023/05/27 10:31:02;;;;;;;7.20;6.50;;;28.50;66.40;;;;;;5096968;27;20231;-64
2023/05/27 10:33:30;;;;;;;6.07;5.47;;;28.60;66.30;;;;;;5116369;28;20653;-65
2023/05/27 10:36:07;;;;;;;6.70;5.93;;;28.60;65.30;;;;;;5118586;27;20242;-63
2023/05/27 10:38:35;;;;;;;7.83;6.23;;;28.70;64.40;;;;;;5115735;27;20251;-64
2023/05/27 10:41:05;;;;;;;6.80;6.10;;;28.70;65.60;;;;;;5117397;27;20207;-64
2023/05/27 10:43:35;;;;;;;8.10;5.70;;;28.80;66.00;;;;;;5115277;27;20216;-65
2023/05/27 10:46:03;;;;;;;9.43;5.93;;;28.90;64.60;;;;;;5109934;27;20236;-65
2023/05/27 10:48:33;;;;;;;6.97;6.27;;;29.10;63.70;;;;;;5116461;27;20272;-67
2023/05/27 10:51:01;;;;;;;7.60;5.90;;;29.10;64.70;;;;;;5117248;27;20204;-65
2023/05/27 10:53:29;;;;;;;6.60;5.13;;;29.20;63.10;;;;;;5118299;27;20238;-65
2023/05/27 10:55:59;;;;;;;7.23;5.67;;;29.30;59.80;;;;;;5117237;27;20188;-64
2023/05/27 10:58:26;;;;;;;6.67;5.93;;;29.00;57.80;;;;;;5100948;28;20277;-64
2023/05/27 11:00:55;;;;;;;8.47;6.17;;;28.80;59.70;;;;;;5117495;27;20192;-64
2023/05/27 11:03:23;;;;;;;9.00;6.33;;;28.60;59.70;;;;;;5116734;27;20208;-64
2023/05/27 11:06:04;;;;;;;6.83;6.03;;;28.50;61.20;;;;;;5116417;27;20220;-64
2023/05/27 11:08:35;;;;;;;10.23;6.63;;;28.40;63.10;;;;;;5114535;27;20200;-63
2023/05/27 11:11:05;;;;;;;8.47;6.80;;;28.30;64.10;;;;;;5117332;27;20671;-64
2023/05/27 11:13:35;;;;;;;7.20;5.90;;;28.40;65.10;;;;;;5118266;27;20211;-64
2023/05/27 11:16:05;;;;;;;11.33;6.50;;;28.60;64.20;;;;;;5114548;27;21018;-64
2023/05/27 11:18:42;;;;;;;7.87;5.83;;;28.80;62.70;;;;;;5118430;27;20220;-65
2023/05/27 11:21:11;;;;;;;7.67;5.90;;;29.00;62.20;;;;;;5116054;27;20207;-64
2023/05/27 11:23:42;;;;;;;10.77;5.93;;;29.00;61.50;;;;;;5116488;27;20200;-65
2023/05/27 11:26:17;;;;;;;9.50;7.07;;;29.00;63.30;;;;;;5115243;27;20193;-64
2023/05/27 11:28:46;;;;;;;6.70;6.10;;;28.90;62.90;;;;;;5116220;27;20199;-66
2023/05/27 11:31:14;;;;;;;7.07;6.37;;;28.80;64.00;;;;;;5115996;27;20196;-64
2023/05/27 11:33:45;;;;;;;7.40;6.70;;;28.70;65.10;;;;;;5116268;27;20215;-64
2023/05/27 11:36:14;;;;;;;8.00;6.20;;;28.60;65.00;;;;;;5118151;27;20210;-64
2023/05/27 11:38:47;;;;;;;6.67;5.93;;;28.60;63.50;;;;;;5115550;27;20204;-65
2023/05/27 11:41:22;;;;;;;7.27;6.40;;;28.70;64.10;;;;;;5117137;27;20219;-64
2023/05/27 11:43:54;;;;;;;6.67;5.80;;;28.90;63.60;;;;;;5115762;27;20188;-65
2023/05/27 11:46:22;;;;;;;6.57;5.97;;;29.20;63.90;;;;;;5114943;27;20224;-65
2023/05/27 11:48:49;;;;;;;6.53;5.73;;;29.30;61.00;;;;;;5116812;27;20280;-64
2023/05/27 11:51:16;;;;;;;7.10;5.80;;;29.50;59.90;;;;;;5116521;27;20200;-65
2023/05/27 11:53:47;;;;;;;6.43;5.83;;;29.60;58.80;;;;;;5116102;28;20196;-64
2023/05/27 11:56:15;;;;;;;7.00;6.23;;;29.70;58.10;;;;;;5097908;27;20524;-64
2023/05/27 11:58:42;;;;;;;9.23;5.90;;;29.70;56.40;;;;;;5115278;27;20216;-65
2023/05/27 12:01:09;;;;;;;8.57;6.70;;;29.70;56.70;;;;;;5114861;28;20215;-64
2023/05/27 12:03:36;;;;;;;7.77;5.33;;;29.70;57.40;;;;;;5116422;27;20635;-65
2023/05/27 12:06:03;;;;;;;8.90;6.10;;;29.70;56.90;;;;;;5117520;27;20200;-64
2023/05/27 12:08:30;;;;;;;7.00;5.80;;;29.70;56.80;;;;;;5117044;27;20192;-66
2023/05/27 12:10:57;;;;;;;5.80;5.00;;;29.70;53.50;;;;;;5114199;27;20224;-65
2023/05/27 12:13:25;;;;;;;7.43;5.57;;;29.50;53.50;;;;;;5112750;27;20254;-63
2023/05/27 12:15:52;;;;;;;6.53;5.77;;;29.40;55.70;;;;;;5115539;27;20235;-64
2023/05/27 12:18:20;;;;;;;6.43;5.77;;;29.30;55.30;;;;;;5116290;27;20212;-64
2023/05/27 12:20:47;;;;;;;9.53;5.87;;;29.30;54.70;;;;;;5114656;27;20200;-65
2023/05/27 12:23:14;;;;;;;7.13;6.23;;;29.30;54.70;;;;;;5114437;27;20192;-65
2023/05/27 12:25:42;;;;;;;7.23;6.17;;;29.20;56.20;;;;;;5117273;27;20218;-65
2023/05/27 12:28:10;;;;;;;12.50;5.83;;;29.20;57.10;;;;;;5115352;27;20188;-64
2023/05/27 12:30:37;;;;;;;7.77;6.23;;;29.30;58.00;;;;;;5113032;27;20200;-64
2023/05/27 12:33:05;;;;;;;6.10;5.47;;;29.40;55.90;;;;;;5115222;27;20282;-65
2023/05/27 12:35:33;;;;;;;6.20;5.60;;;29.40;54.70;;;;;;5115856;27;20228;-65
2023/05/27 12:38:00;;;;;;;7.63;5.63;;;29.40;53.90;;;;;;5115318;27;20262;-65
2023/05/27 12:40:28;;;;;;;7.20;5.67;;;29.40;55.40;;;;;;5115871;27;20201;-65
2023/05/27 12:42:55;;;;;;;8.73;6.30;;;29.30;55.40;;;;;;5115940;27;20196;-65
2023/05/27 12:45:24;;;;;;;6.80;5.90;;;29.30;55.80;;;;;;5113726;27;20196;-65
2023/05/27 12:47:51;;;;;;;6.53;5.53;;;29.30;57.50;;;;;;5115438;27;20199;-65
2023/05/27 12:50:19;;;;;;;7.37;6.30;;;29.40;57.50;;;;;;5095331;27;20218;-64
2023/05/27 12:52:47;;;;;;;6.17;5.33;;;29.40;55.80;;;;;;5114313;27;20196;-65
2023/05/27 12:55:17;;;;;;;6.37;5.67;;;29.40;54.10;;;;;;5113859;27;20622;-64
2023/05/27 12:57:49;;;;;;;7.90;5.83;;;29.30;53.80;;;;;;5112999;28;20220;-65
2023/05/27 13:00:17;;;;;;;6.97;6.27;;;29.20;55.80;;;;;;5114140;28;20209;-67
2023/05/27 13:02:47;;;;;;;6.73;5.70;;;29.20;55.10;;;;;;5116113;27;20668;-65
2023/05/27 13:05:15;;;;;;;8.00;5.57;;;29.10;55.30;;;;;;5114059;27;20192;-65
2023/05/27 13:07:55;;;;;;;5.83;5.23;;;29.10;55.30;;;;;;5115918;27;20185;-65
2023/05/27 13:10:22;;;;;;;6.33;5.67;;;29.10;53.40;;;;;;5115223;27;20212;-65
2023/05/27 13:12:50;;;;;;;9.07;5.53;;;29.00;53.00;;;;;;5113585;27;20236;-65
2023/05/27 13:15:17;;;;;;;6.80;5.70;;;29.00;54.50;;;;;;5115255;27;20219;-66
2023/05/27 13:17:45;;;;;;;7.97;5.80;;;29.00;54.70;;;;;;5115962;27;20195;-66
2023/05/27 13:20:16;;;;;;;7.40;5.80;;;29.00;55.10;;;;;;5110076;28;20212;-65
2023/05/27 13:22:44;;;;;;;6.90;6.20;;;29.10;54.80;;;;;;5117017;27;20192;-65
2023/05/27 13:25:12;;;;;;;10.37;6.33;;;29.10;56.20;;;;;;5113278;28;20196;-65